sensor_id;sensor_type;location;lat;lon;timestamp;temperature;humidity
72940;DHT22;61094;51.154;13.570;2023-04-28T00:04:52;4.30;96.30
72940;DHT22;61094;51.154;13.570;2023-04-28T00:09:55;4.30;95.90
72940;DHT22;61094;51.154;13.570;2023-04-28T00:14:57;4.30;94.70
72940;DHT22;61094;51.154;13.570;2023-04-28T00:20:03;4.30;95.40
72940;DHT22;61094;51.154;13.570;2023-04-28T00:25:10;4.30;96.80
72940;DHT22;61094;51.154;13.570;2023-04-28T00:30:12;4.30;94.50
72940;DHT22;61094;51.154;13.570;2023-04-28T00:35:13;4.20;95.80
72940;DHT22;61094;51.154;13.570;2023-04-28T00:40:16;4.20;98.30
72940;DHT22;61094;51.154;13.570;2023-04-28T00:45:18;4.10;96.90
72940;DHT22;61094;51.154;13.570;2023-04-28T00:50:21;4.10;95.40
72940;DHT22;61094;51.154;13.570;2023-04-28T00:55:25;4.00;95.40
72940;DHT22;61094;51.154;13.570;2023-04-28T01:00:28;4.00;97.80
72940;DHT22;61094;51.154;13.570;2023-04-28T01:05:30;3.90;96.00
72940;DHT22;61094;51.154;13.570;2023-04-28T01:10:33;3.90;97.60
72940;DHT22;61094;51.154;13.570;2023-04-28T01:15:42;3.90;97.00
72940;DHT22;61094;51.154;13.570;2023-04-28T01:20:44;3.80;97.30
72940;DHT22;61094;51.154;13.570;2023-04-28T01:25:47;3.90;96.50
72940;DHT22;61094;51.154;13.570;2023-04-28T01:30:50;3.80;97.30
72940;DHT22;61094;51.154;13.570;2023-04-28T01:35:56;3.80;97.10
72940;DHT22;61094;51.154;13.570;2023-04-28T01:40:59;3.80;97.40
72940;DHT22;61094;51.154;13.570;2023-04-28T01:46:02;3.70;97.50
72940;DHT22;61094;51.154;13.570;2023-04-28T01:51:05;3.70;98.30
72940;DHT22;61094;51.154;13.570;2023-04-28T01:56:10;3.60;98.10
72940;DHT22;61094;51.154;13.570;2023-04-28T02:01:16;3.50;96.60
72940;DHT22;61094;51.154;13.570;2023-04-28T02:06:18;3.50;95.80
72940;DHT22;61094;51.154;13.570;2023-04-28T02:11:21;3.40;98.40
72940;DHT22;61094;51.154;13.570;2023-04-28T02:16:27;3.40;99.10
72940;DHT22;61094;51.154;13.570;2023-04-28T02:21:29;3.30;99.70
72940;DHT22;61094;51.154;13.570;2023-04-28T02:26:34;3.20;99.40
72940;DHT22;61094;51.154;13.570;2023-04-28T02:31:36;3.20;99.90
72940;DHT22;61094;51.154;13.570;2023-04-28T02:36:38;3.10;99.90
72940;DHT22;61094;51.154;13.570;2023-04-28T02:41:42;3.00;99.90
72940;DHT22;61094;51.154;13.570;2023-04-28T02:46:44;3.00;99.90
72940;DHT22;61094;51.154;13.570;2023-04-28T02:51:47;2.90;99.90
72940;DHT22;61094;51.154;13.570;2023-04-28T02:56:50;2.90;99.90
72940;DHT22;61094;51.154;13.570;2023-04-28T03:01:52;2.90;99.90
72940;DHT22;61094;51.154;13.570;2023-04-28T03:06:53;3.00;99.90
72940;DHT22;61094;51.154;13.570;2023-04-28T03:11:56;3.10;99.90
72940;DHT22;61094;51.154;13.570;2023-04-28T03:16:58;3.20;99.90
72940;DHT22;61094;51.154;13.570;2023-04-28T03:22:00;3.20;99.90
72940;DHT22;61094;51.154;13.570;2023-04-28T03:27:03;3.20;99.90
72940;DHT22;61094;51.154;13.570;2023-04-28T03:32:05;3.20;99.90
72940;DHT22;61094;51.154;13.570;2023-04-28T03:37:07;3.20;99.90
72940;DHT22;61094;51.154;13.570;2023-04-28T03:42:11;3.20;99.90
72940;DHT22;61094;51.154;13.570;2023-04-28T03:47:38;3.30;99.90
72940;DHT22;61094;51.154;13.570;2023-04-28T03:52:39;3.30;99.90
72940;DHT22;61094;51.154;13.570;2023-04-28T03:57:42;3.40;99.90
72940;DHT22;61094;51.154;13.570;2023-04-28T04:02:45;3.40;99.90
72940;DHT22;61094;51.154;13.570;2023-04-28T04:07:47;3.50;99.90
72940;DHT22;61094;51.154;13.570;2023-04-28T04:12:50;3.50;99.90
72940;DHT22;61094;51.154;13.570;2023-04-28T04:17:52;3.60;99.90
72940;DHT22;61094;51.154;13.570;2023-04-28T04:22:55;3.60;99.90
72940;DHT22;61094;51.154;13.570;2023-04-28T04:27:59;3.70;99.90
72940;DHT22;61094;51.154;13.570;2023-04-28T04:33:01;3.80;99.90
72940;DHT22;61094;51.154;13.570;2023-04-28T04:38:03;3.90;99.90
72940;DHT22;61094;51.154;13.570;2023-04-28T04:43:08;4.00;99.90
72940;DHT22;61094;51.154;13.570;2023-04-28T04:48:17;4.10;99.90
72940;DHT22;61094;51.154;13.570;2023-04-28T04:53:19;4.20;99.60
72940;DHT22;61094;51.154;13.570;2023-04-28T04:58:23;4.30;99.90
72940;DHT22;61094;51.154;13.570;2023-04-28T05:03:41;4.40;99.90
72940;DHT22;61094;51.154;13.570;2023-04-28T05:08:42;4.50;99.80
72940;DHT22;61094;51.154;13.570;2023-04-28T05:13:46;4.60;99.50
72940;DHT22;61094;51.154;13.570;2023-04-28T05:18:48;4.70;99.90
72940;DHT22;61094;51.154;13.570;2023-04-28T05:23:50;4.80;99.90
72940;DHT22;61094;51.154;13.570;2023-04-28T05:28:54;4.90;99.10
72940;DHT22;61094;51.154;13.570;2023-04-28T05:33:56;5.10;99.60
72940;DHT22;61094;51.154;13.570;2023-04-28T05:38:59;5.30;99.60
72940;DHT22;61094;51.154;13.570;2023-04-28T05:44:03;5.40;98.50
72940;DHT22;61094;51.154;13.570;2023-04-28T05:49:08;5.60;98.30
72940;DHT22;61094;51.154;13.570;2023-04-28T05:54:11;5.70;97.60
72940;DHT22;61094;51.154;13.570;2023-04-28T05:59:20;5.90;97.70
72940;DHT22;61094;51.154;13.570;2023-04-28T06:04:22;6.00;97.40
72940;DHT22;61094;51.154;13.570;2023-04-28T06:09:26;6.20;96.90
72940;DHT22;61094;51.154;13.570;2023-04-28T06:14:31;6.60;94.60
72940;DHT22;61094;51.154;13.570;2023-04-28T06:19:32;7.00;93.00
72940;DHT22;61094;51.154;13.570;2023-04-28T06:24:34;7.30;90.80
72940;DHT22;61094;51.154;13.570;2023-04-28T06:29:40;7.70;90.60
72940;DHT22;61094;51.154;13.570;2023-04-28T06:34:42;7.90;88.50
72940;DHT22;61094;51.154;13.570;2023-04-28T06:39:44;8.20;85.50
72940;DHT22;61094;51.154;13.570;2023-04-28T06:44:47;8.40;82.00
72940;DHT22;61094;51.154;13.570;2023-04-28T06:49:48;8.70;83.20
72940;DHT22;61094;51.154;13.570;2023-04-28T06:54:51;8.90;75.80
72940;DHT22;61094;51.154;13.570;2023-04-28T06:59:54;9.20;72.70
72940;DHT22;61094;51.154;13.570;2023-04-28T07:04:55;9.40;64.90
72940;DHT22;61094;51.154;13.570;2023-04-28T07:09:57;9.60;69.20
72940;DHT22;61094;51.154;13.570;2023-04-28T07:15:01;10.10;66.80
72940;DHT22;61094;51.154;13.570;2023-04-28T07:20:06;10.40;64.10
72940;DHT22;61094;51.154;13.570;2023-04-28T07:25:09;10.70;62.20
72940;DHT22;61094;51.154;13.570;2023-04-28T07:30:12;10.90;58.70
72940;DHT22;61094;51.154;13.570;2023-04-28T07:35:14;11.00;54.30
72940;DHT22;61094;51.154;13.570;2023-04-28T07:40:17;11.30;52.90
72940;DHT22;61094;51.154;13.570;2023-04-28T07:45:20;11.50;50.10
72940;DHT22;61094;51.154;13.570;2023-04-28T07:50:22;11.60;50.00
72940;DHT22;61094;51.154;13.570;2023-04-28T07:55:24;11.80;48.80
72940;DHT22;61094;51.154;13.570;2023-04-28T08:05:40;12.10;48.20
72940;DHT22;61094;51.154;13.570;2023-04-28T08:10:41;12.40;47.70
72940;DHT22;61094;51.154;13.570;2023-04-28T08:15:43;12.60;47.00
72940;DHT22;61094;51.154;13.570;2023-04-28T08:20:46;13.10;46.00
72940;DHT22;61094;51.154;13.570;2023-04-28T08:25:49;13.60;45.20
72940;DHT22;61094;51.154;13.570;2023-04-28T08:30:50;14.00;44.00
72940;DHT22;61094;51.154;13.570;2023-04-28T08:35:55;14.00;43.60
72940;DHT22;61094;51.154;13.570;2023-04-28T08:40:57;13.90;44.10
72940;DHT22;61094;51.154;13.570;2023-04-28T08:46:01;13.90;44.30
72940;DHT22;61094;51.154;13.570;2023-04-28T08:51:07;14.00;44.60
72940;DHT22;61094;51.154;13.570;2023-04-28T08:56:09;14.30;43.50
72940;DHT22;61094;51.154;13.570;2023-04-28T09:01:13;14.60;43.20
72940;DHT22;61094;51.154;13.570;2023-04-28T09:06:16;14.90;41.70
72940;DHT22;61094;51.154;13.570;2023-04-28T09:11:18;14.90;42.80
72940;DHT22;61094;51.154;13.570;2023-04-28T09:16:20;15.00;42.90
72940;DHT22;61094;51.154;13.570;2023-04-28T09:21:23;14.90;42.30
72940;DHT22;61094;51.154;13.570;2023-04-28T09:26:25;15.00;42.20
72940;DHT22;61094;51.154;13.570;2023-04-28T09:31:27;15.20;42.10
72940;DHT22;61094;51.154;13.570;2023-04-28T09:36:30;15.60;41.30
72940;DHT22;61094;51.154;13.570;2023-04-28T09:41:37;15.80;41.40
72940;DHT22;61094;51.154;13.570;2023-04-28T09:46:40;15.50;42.00
72940;DHT22;61094;51.154;13.570;2023-04-28T09:51:44;15.30;42.60
72940;DHT22;61094;51.154;13.570;2023-04-28T09:56:46;15.00;43.40
72940;DHT22;61094;51.154;13.570;2023-04-28T10:01:48;14.90;43.80
72940;DHT22;61094;51.154;13.570;2023-04-28T10:06:52;14.90;43.90
72940;DHT22;61094;51.154;13.570;2023-04-28T10:11:54;14.90;46.70
72940;DHT22;61094;51.154;13.570;2023-04-28T10:16:57;14.70;51.10
72940;DHT22;61094;51.154;13.570;2023-04-28T10:22:16;14.50;57.70
72940;DHT22;61094;51.154;13.570;2023-04-28T10:27:28;14.40;75.60
72940;DHT22;61094;51.154;13.570;2023-04-28T10:32:30;14.20;68.80
72940;DHT22;61094;51.154;13.570;2023-04-28T10:38:04;14.10;62.50
72940;DHT22;61094;51.154;13.570;2023-04-28T10:43:08;13.90;76.70
72940;DHT22;61094;51.154;13.570;2023-04-28T10:48:10;13.80;89.50
72940;DHT22;61094;51.154;13.570;2023-04-28T10:53:13;13.60;80.80
72940;DHT22;61094;51.154;13.570;2023-04-28T10:58:30;13.30;80.80
72940;DHT22;61094;51.154;13.570;2023-04-28T11:03:45;12.90;93.90
72940;DHT22;61094;51.154;13.570;2023-04-28T11:08:51;12.70;92.10
72940;DHT22;61094;51.154;13.570;2023-04-28T11:14:32;12.50;98.00
72940;DHT22;61094;51.154;13.570;2023-04-28T11:19:41;12.40;98.20
72940;DHT22;61094;51.154;13.570;2023-04-28T11:24:55;12.40;99.90
72940;DHT22;61094;51.154;13.570;2023-04-28T11:29:58;12.30;99.70
72940;DHT22;61094;51.154;13.570;2023-04-28T11:35:01;12.40;99.90
72940;DHT22;61094;51.154;13.570;2023-04-28T11:40:10;12.40;99.90
72940;DHT22;61094;51.154;13.570;2023-04-28T11:45:12;12.40;99.90
72940;DHT22;61094;51.154;13.570;2023-04-28T11:50:14;12.40;99.90
72940;DHT22;61094;51.154;13.570;2023-04-28T11:55:18;12.40;99.90
72940;DHT22;61094;51.154;13.570;2023-04-28T12:00:23;12.30;98.70
72940;DHT22;61094;51.154;13.570;2023-04-28T12:05:25;12.30;99.00
72940;DHT22;61094;51.154;13.570;2023-04-28T12:10:29;12.50;97.20
72940;DHT22;61094;51.154;13.570;2023-04-28T12:15:39;12.60;99.50
72940;DHT22;61094;51.154;13.570;2023-04-28T12:20:41;12.70;97.50
72940;DHT22;61094;51.154;13.570;2023-04-28T12:25:44;12.60;96.70
72940;DHT22;61094;51.154;13.570;2023-04-28T12:30:47;12.60;96.30
72940;DHT22;61094;51.154;13.570;2023-04-28T12:35:49;12.60;98.20
72940;DHT22;61094;51.154;13.570;2023-04-28T12:40:52;12.50;97.60
72940;DHT22;61094;51.154;13.570;2023-04-28T12:45:54;12.50;99.20
72940;DHT22;61094;51.154;13.570;2023-04-28T12:51:03;12.60;99.90
72940;DHT22;61094;51.154;13.570;2023-04-28T12:56:06;12.80;97.70
72940;DHT22;61094;51.154;13.570;2023-04-28T13:01:08;12.80;95.30
72940;DHT22;61094;51.154;13.570;2023-04-28T13:06:26;12.80;96.10
72940;DHT22;61094;51.154;13.570;2023-04-28T13:11:31;12.70;98.50
72940;DHT22;61094;51.154;13.570;2023-04-28T13:16:33;12.70;98.90
72940;DHT22;61094;51.154;13.570;2023-04-28T13:21:36;12.50;98.40
72940;DHT22;61094;51.154;13.570;2023-04-28T13:26:44;12.40;99.90
72940;DHT22;61094;51.154;13.570;2023-04-28T13:31:49;12.40;99.90
72940;DHT22;61094;51.154;13.570;2023-04-28T13:36:51;12.40;99.90
72940;DHT22;61094;51.154;13.570;2023-04-28T13:41:56;12.30;99.30
72940;DHT22;61094;51.154;13.570;2023-04-28T13:46:57;12.50;99.90
72940;DHT22;61094;51.154;13.570;2023-04-28T13:51:59;12.50;99.90
72940;DHT22;61094;51.154;13.570;2023-04-28T13:57:04;12.50;99.90
72940;DHT22;61094;51.154;13.570;2023-04-28T14:02:06;12.40;99.90
72940;DHT22;61094;51.154;13.570;2023-04-28T14:07:08;12.40;99.90
72940;DHT22;61094;51.154;13.570;2023-04-28T14:12:11;12.40;99.90
72940;DHT22;61094;51.154;13.570;2023-04-28T14:17:14;12.40;99.90
72940;DHT22;61094;51.154;13.570;2023-04-28T14:22:16;12.30;99.90
72940;DHT22;61094;51.154;13.570;2023-04-28T14:27:19;12.20;98.10
72940;DHT22;61094;51.154;13.570;2023-04-28T14:32:21;12.30;99.90
72940;DHT22;61094;51.154;13.570;2023-04-28T14:37:25;12.30;98.80
72940;DHT22;61094;51.154;13.570;2023-04-28T14:42:29;12.30;99.90
72940;DHT22;61094;51.154;13.570;2023-04-28T14:47:32;12.30;98.70
72940;DHT22;61094;51.154;13.570;2023-04-28T14:52:33;12.30;98.10
72940;DHT22;61094;51.154;13.570;2023-04-28T14:57:37;12.40;99.20
72940;DHT22;61094;51.154;13.570;2023-04-28T15:02:38;12.50;97.60
72940;DHT22;61094;51.154;13.570;2023-04-28T15:07:40;12.60;98.50
72940;DHT22;61094;51.154;13.570;2023-04-28T15:12:43;12.70;96.00
72940;DHT22;61094;51.154;13.570;2023-04-28T15:17:45;12.70;97.40
72940;DHT22;61094;51.154;13.570;2023-04-28T15:22:47;12.70;97.30
72940;DHT22;61094;51.154;13.570;2023-04-28T15:27:50;12.70;96.00
72940;DHT22;61094;51.154;13.570;2023-04-28T15:32:51;12.70;96.20
72940;DHT22;61094;51.154;13.570;2023-04-28T15:37:53;12.70;96.10
72940;DHT22;61094;51.154;13.570;2023-04-28T15:42:56;12.70;95.80
72940;DHT22;61094;51.154;13.570;2023-04-28T15:47:58;12.60;95.30
72940;DHT22;61094;51.154;13.570;2023-04-28T15:53:00;12.60;95.60
72940;DHT22;61094;51.154;13.570;2023-04-28T15:58:04;12.50;95.70
72940;DHT22;61094;51.154;13.570;2023-04-28T16:03:05;12.50;96.00
72940;DHT22;61094;51.154;13.570;2023-04-28T16:08:07;12.50;96.50
72940;DHT22;61094;51.154;13.570;2023-04-28T16:13:11;12.50;95.50
72940;DHT22;61094;51.154;13.570;2023-04-28T16:18:13;12.50;96.40
72940;DHT22;61094;51.154;13.570;2023-04-28T16:23:14;12.50;96.50
72940;DHT22;61094;51.154;13.570;2023-04-28T16:28:18;12.40;95.40
72940;DHT22;61094;51.154;13.570;2023-04-28T16:33:19;12.40;95.40
72940;DHT22;61094;51.154;13.570;2023-04-28T16:38:21;12.40;96.80
72940;DHT22;61094;51.154;13.570;2023-04-28T16:43:24;12.40;95.80
72940;DHT22;61094;51.154;13.570;2023-04-28T16:48:26;12.30;96.70
72940;DHT22;61094;51.154;13.570;2023-04-28T16:53:28;12.30;95.60
72940;DHT22;61094;51.154;13.570;2023-04-28T16:58:32;12.30;94.80
72940;DHT22;61094;51.154;13.570;2023-04-28T17:03:33;12.30;95.50
72940;DHT22;61094;51.154;13.570;2023-04-28T17:08:40;12.20;95.60
72940;DHT22;61094;51.154;13.570;2023-04-28T17:13:45;12.20;95.60
72940;DHT22;61094;51.154;13.570;2023-04-28T17:18:47;12.20;96.80
72940;DHT22;61094;51.154;13.570;2023-04-28T17:23:49;12.10;96.50
72940;DHT22;61094;51.154;13.570;2023-04-28T17:28:52;12.10;96.60
72940;DHT22;61094;51.154;13.570;2023-04-28T17:33:56;12.10;96.40
72940;DHT22;61094;51.154;13.570;2023-04-28T17:38:58;12.10;97.00
72940;DHT22;61094;51.154;13.570;2023-04-28T17:44:02;12.00;97.20
72940;DHT22;61094;51.154;13.570;2023-04-28T17:49:03;12.00;97.60
72940;DHT22;61094;51.154;13.570;2023-04-28T17:54:05;12.00;97.30
72940;DHT22;61094;51.154;13.570;2023-04-28T17:59:10;11.90;98.00
72940;DHT22;61094;51.154;13.570;2023-04-28T18:04:14;11.90;98.10
72940;DHT22;61094;51.154;13.570;2023-04-28T18:09:15;11.90;98.30
72940;DHT22;61094;51.154;13.570;2023-04-28T18:14:21;11.80;98.00
72940;DHT22;61094;51.154;13.570;2023-04-28T18:19:24;11.80;98.50
72940;DHT22;61094;51.154;13.570;2023-04-28T18:24:26;11.80;98.00
72940;DHT22;61094;51.154;13.570;2023-04-28T18:29:29;11.80;98.30
72940;DHT22;61094;51.154;13.570;2023-04-28T18:34:32;11.80;98.60
72940;DHT22;61094;51.154;13.570;2023-04-28T18:39:34;11.80;98.20
72940;DHT22;61094;51.154;13.570;2023-04-28T18:44:39;11.70;98.60
72940;DHT22;61094;51.154;13.570;2023-04-28T18:49:42;11.70;99.20
72940;DHT22;61094;51.154;13.570;2023-04-28T18:54:44;11.70;99.50
72940;DHT22;61094;51.154;13.570;2023-04-28T18:59:47;11.70;99.90
72940;DHT22;61094;51.154;13.570;2023-04-28T19:04:49;11.70;99.90
72940;DHT22;61094;51.154;13.570;2023-04-28T19:09:51;11.70;99.90
72940;DHT22;61094;51.154;13.570;2023-04-28T19:14:54;11.60;99.90
72940;DHT22;61094;51.154;13.570;2023-04-28T19:19:57;11.70;99.90
72940;DHT22;61094;51.154;13.570;2023-04-28T19:25:00;11.60;99.90
72940;DHT22;61094;51.154;13.570;2023-04-28T19:30:07;11.60;99.90
72940;DHT22;61094;51.154;13.570;2023-04-28T19:35:10;11.60;99.90
72940;DHT22;61094;51.154;13.570;2023-04-28T19:40:14;11.60;99.90
72940;DHT22;61094;51.154;13.570;2023-04-28T19:45:18;11.60;99.90
72940;DHT22;61094;51.154;13.570;2023-04-28T19:50:20;11.60;99.90
72940;DHT22;61094;51.154;13.570;2023-04-28T19:55:23;11.60;99.90
72940;DHT22;61094;51.154;13.570;2023-04-28T20:00:26;11.60;99.90
72940;DHT22;61094;51.154;13.570;2023-04-28T20:05:28;11.60;99.90
72940;DHT22;61094;51.154;13.570;2023-04-28T20:10:30;11.60;99.90
72940;DHT22;61094;51.154;13.570;2023-04-28T20:15:33;11.50;99.90
72940;DHT22;61094;51.154;13.570;2023-04-28T20:20:36;11.50;99.90
72940;DHT22;61094;51.154;13.570;2023-04-28T20:25:38;11.40;99.90
72940;DHT22;61094;51.154;13.570;2023-04-28T20:30:42;11.30;99.90
72940;DHT22;61094;51.154;13.570;2023-04-28T20:35:43;11.30;99.90
72940;DHT22;61094;51.154;13.570;2023-04-28T20:40:45;11.20;99.90
72940;DHT22;61094;51.154;13.570;2023-04-28T20:45:48;11.10;99.90
72940;DHT22;61094;51.154;13.570;2023-04-28T20:50:50;11.10;99.90
72940;DHT22;61094;51.154;13.570;2023-04-28T20:55:55;11.10;99.90
72940;DHT22;61094;51.154;13.570;2023-04-28T21:00:58;11.10;99.90
72940;DHT22;61094;51.154;13.570;2023-04-28T21:05:59;11.10;99.90
72940;DHT22;61094;51.154;13.570;2023-04-28T21:11:01;11.10;99.90
72940;DHT22;61094;51.154;13.570;2023-04-28T21:16:05;11.10;99.90
72940;DHT22;61094;51.154;13.570;2023-04-28T21:21:06;11.10;99.90
72940;DHT22;61094;51.154;13.570;2023-04-28T21:26:08;11.10;99.90
72940;DHT22;61094;51.154;13.570;2023-04-28T21:31:12;11.10;99.90
72940;DHT22;61094;51.154;13.570;2023-04-28T21:36:14;11.10;99.90
72940;DHT22;61094;51.154;13.570;2023-04-28T21:41:15;11.10;99.90
72940;DHT22;61094;51.154;13.570;2023-04-28T21:46:18;11.20;99.90
72940;DHT22;61094;51.154;13.570;2023-04-28T21:51:20;11.20;99.90
72940;DHT22;61094;51.154;13.570;2023-04-28T21:56:22;11.20;99.90
72940;DHT22;61094;51.154;13.570;2023-04-28T22:01:25;11.20;99.90
72940;DHT22;61094;51.154;13.570;2023-04-28T22:06:27;11.20;99.90
72940;DHT22;61094;51.154;13.570;2023-04-28T22:11:29;11.20;99.90
72940;DHT22;61094;51.154;13.570;2023-04-28T22:16:32;11.20;99.90
72940;DHT22;61094;51.154;13.570;2023-04-28T22:21:34;11.20;99.90
72940;DHT22;61094;51.154;13.570;2023-04-28T22:26:35;11.20;99.90
72940;DHT22;61094;51.154;13.570;2023-04-28T22:31:38;11.20;99.90
72940;DHT22;61094;51.154;13.570;2023-04-28T22:36:40;11.30;99.90
72940;DHT22;61094;51.154;13.570;2023-04-28T22:41:42;11.30;99.90
72940;DHT22;61094;51.154;13.570;2023-04-28T22:46:45;11.20;99.90
72940;DHT22;61094;51.154;13.570;2023-04-28T22:51:46;11.20;99.90
72940;DHT22;61094;51.154;13.570;2023-04-28T22:56:48;11.20;99.90
72940;DHT22;61094;51.154;13.570;2023-04-28T23:01:51;11.20;99.90
72940;DHT22;61094;51.154;13.570;2023-04-28T23:06:54;11.10;99.90
72940;DHT22;61094;51.154;13.570;2023-04-28T23:11:56;11.10;99.90
72940;DHT22;61094;51.154;13.570;2023-04-28T23:16:58;11.10;99.90
72940;DHT22;61094;51.154;13.570;2023-04-28T23:22:00;10.90;99.90
72940;DHT22;61094;51.154;13.570;2023-04-28T23:27:02;10.90;99.90
72940;DHT22;61094;51.154;13.570;2023-04-28T23:32:05;10.80;99.90
72940;DHT22;61094;51.154;13.570;2023-04-28T23:37:07;10.70;99.90
72940;DHT22;61094;51.154;13.570;2023-04-28T23:42:09;10.70;99.90
72940;DHT22;61094;51.154;13.570;2023-04-28T23:47:12;10.60;99.90
72940;DHT22;61094;51.154;13.570;2023-04-28T23:52:14;10.60;99.90
72940;DHT22;61094;51.154;13.570;2023-04-28T23:57:16;10.60;99.90
